Main page
METAR-TAF:

METAR-TAF

Airports :

Koror, Babeldaob, Palau

Roman Tmetuchl International Airport

latitude: 07-22N, longitude: 134-32E, elevation: 54 m

Current weather observation

The report was made 10 minutes ago, at 15:50 UTC
Calm wind
Temperature 26°C
Humidity 94%
Pressure 1008 hPa
Visibility: 20.9 km
Broken clouds at a height of 1600 ft, Towering cumulus.
Overcast at a height of 29000 ft

METAR: PTRO 251550Z 00000KT 13SM BKN016TCU OVC290 26/25 A2977 RMK TCU ALQDS

Time: 01:00 (16:00 UTC)

Forecast

The report was made 4 hours and 24 minutes ago, at 11:36 UTC
Forecast valid from 25 at 12 UTC to 26 at 12 UTC
Wind kt from the North
Visibility: 10 km
Scattered clouds at a height of 1600 ft
Broken clouds at a height of 11000 ft
showers in vicinity

TAF: PTRO 251136Z 2512/2612 00000KT P6SM VCSH SCT016 BKN110

Weather observations and forecasts of more than 4000 airports (METAR and TAF reports).

The available stations are represented by yellow and red dots on the map.

Hover mouse over dot to see the name of the station.

Then click to see weather observations and forecasts.

To change the map : click on the green buttons with a black cross to zoom in, on the green button with a dash to zoom out, or on the green arrows for adjacent maps.


METAR-TAF: